Portada
METAR-TAF:

METAR-TAF

Aeroports :

Aeroport de Dublín

Dublín, Irlanda

latitud: 53-26N, longitud: 006-15W, altitud: 68 m

Observació

L'informe es va fer fa 38 minuts, a les 21:00 UTC
Vent 7 kt del Est/Sud-Est
Temperatura 12°C
Humitat 88%
Pressió 1037 hPa
Visibilitat 10 km o més
Escasses núvols a una alçada de 2200 ft
Cel ennuvolat a una alçada de 5000 ft

METAR: EIDW 262100Z 11007KT 9999 FEW022 BKN050 12/10 Q1037 NOSIG

Hora: 22:38 (21:38 UTC)

Pronòstic

L'informe es va fer fa 4 hores i 38 minuts, a les 17:00 UTC
Pronòstic vàlid del 26 a les 18 UTC al 27 a les 18 UTC
Vent 10 kt del Sud-Est
Visibilitat 10 km o més
Núvols disperses a una alçada de 3500 ft
Evolucionant progressivament
l' 26 a les 19 UTC al 26 a les 21 UTC
Vent 5 kt del Est
Evolucionant progressivament
l' 27 a les 08 UTC al 27 a les 10 UTC
Vent 8 kt del Est/Sud-Est

TAF: EIDW 261700Z 2618/2718 14010KT 9999 SCT035 BECMG 2619/2621 10005KT BECMG 2708/2710 12008KT

Observacions i pronòstics meteorològics de més de 4000 aeroports (METAR i TAF).

Les estacions disponibles són els punts grocs i vermells al mapa.

Posi el ratolí al punt desitjat per veure el nom de l'estació.

Feu clic per veure les observacions i els pronòstics meteorològics.

Per canviar el mapa: feu clic els botons verds amb una creu de color negre per apropar; al botó verd amb un guió per allunyar la imatge; o en les fletxes verdes per a mapes adjacents.


METAR-TAF: